Time;durP1;ratioP1;P1;durP2;ratioP2;P2;SDS_P1;SDS_P2;PMS_P1;PMS_P2;Temp;Humidity;BMP_temperature;BMP_pressure;BME280_temperature;BME280_humidity;BME280_pressure;Samples;Min_cycle;Max_cycle;Signal;HPM_P1;HPM_P2
2022/10/01 00:00:25;;;;;;;15.43;14.23;;;8.90;99.90;;;;;;5054018;28;20187;-78
2022/10/01 00:02:53;;;;;;;9.77;8.87;;;8.80;99.90;;;;;;5053905;28;20672;-78
2022/10/01 00:05:20;;;;;;;13.20;12.10;;;8.80;99.90;;;;;;5041828;28;20301;-78
2022/10/01 00:07:47;;;;;;;11.63;10.50;;;8.80;99.90;;;;;;5044763;28;20635;-78
2022/10/01 00:10:15;;;;;;;12.17;11.17;;;8.80;99.90;;;;;;5051505;28;20195;-78
2022/10/01 00:12:45;;;;;;;12.57;11.47;;;8.70;99.90;;;;;;5053645;28;20625;-78
2022/10/01 00:15:15;;;;;;;9.73;8.73;;;8.70;99.90;;;;;;5052975;28;20191;-78
2022/10/01 00:17:43;;;;;;;12.47;11.47;;;8.70;99.90;;;;;;5053414;28;20581;-78
2022/10/01 00:20:11;;;;;;;16.20;15.00;;;8.60;99.90;;;;;;5053228;28;20198;-78
2022/10/01 00:22:38;;;;;;;11.33;10.13;;;8.50;99.90;;;;;;5043313;28;20203;-78
2022/10/01 00:25:06;;;;;;;9.63;8.63;;;8.50;99.90;;;;;;5052734;28;20211;-78
2022/10/01 00:27:34;;;;;;;13.07;11.93;;;8.30;99.90;;;;;;5053162;28;20198;-78
2022/10/01 00:30:02;;;;;;;10.97;9.97;;;8.30;99.90;;;;;;5042851;28;20738;-78
2022/10/01 00:32:31;;;;;;;10.70;9.70;;;8.20;99.90;;;;;;5040847;28;20657;-78
2022/10/01 00:34:59;;;;;;;9.87;8.93;;;8.20;99.90;;;;;;5052174;28;20655;-78
2022/10/01 00:37:26;;;;;;;14.17;13.07;;;8.10;99.90;;;;;;5043812;28;20238;-78
2022/10/01 00:39:53;;;;;;;14.27;13.17;;;8.10;99.90;;;;;;5045339;28;20240;-77
2022/10/01 00:42:24;;;;;;;14.43;13.33;;;8.00;99.90;;;;;;5057412;28;20289;-78
2022/10/01 00:44:52;;;;;;;14.73;13.63;;;7.90;99.90;;;;;;5046234;28;20318;-77
2022/10/01 00:47:28;;;;;;;14.37;13.13;;;8.00;99.90;;;;;;5044439;28;20200;-77
2022/10/01 00:50:00;;;;;;;13.67;12.67;;;7.90;99.90;;;;;;5043407;28;20242;-77
2022/10/01 00:52:31;;;;;;;14.57;13.40;;;7.90;99.90;;;;;;5041980;28;20250;-78
2022/10/01 00:55:03;;;;;;;14.43;13.33;;;7.80;99.90;;;;;;5048855;28;20670;-78
2022/10/01 00:57:30;;;;;;;15.10;14.00;;;7.90;99.90;;;;;;5045694;28;20201;-78
2022/10/01 01:00:01;;;;;;;13.97;12.97;;;7.80;99.90;;;;;;5057388;28;20221;-78
2022/10/01 01:02:28;;;;;;;13.93;12.90;;;7.80;99.90;;;;;;5046302;28;20248;-78
2022/10/01 01:04:57;;;;;;;12.17;11.27;;;7.90;99.90;;;;;;5055895;28;20210;-77
2022/10/01 01:07:25;;;;;;;14.03;12.97;;;7.90;99.90;;;;;;5042634;28;20198;-78
2022/10/01 01:09:54;;;;;;;14.90;13.67;;;7.80;99.90;;;;;;5044684;28;20233;-78
2022/10/01 01:12:38;;;;;;;14.73;13.63;;;7.80;99.90;;;;;;5051442;28;20191;-78
2022/10/01 01:15:14;;;;;;;14.57;13.47;;;7.70;99.90;;;;;;5054630;28;20205;-77
2022/10/01 01:17:51;;;;;;;15.23;14.10;;;7.70;99.90;;;;;;5054555;28;20204;-78
2022/10/01 01:20:42;;;;;;;13.67;12.70;;;7.60;99.90;;;;;;5054415;28;20193;-78
2022/10/01 01:23:32;;;;;;;13.90;12.87;;;7.60;99.90;;;;;;5044665;28;20195;-76
2022/10/01 01:26:12;;;;;;;14.37;13.37;;;7.50;99.90;;;;;;5044845;28;20211;-78
2022/10/01 01:28:46;;;;;;;15.87;14.47;;;7.50;99.90;;;;;;5047692;28;20209;-78
2022/10/01 01:31:21;;;;;;;15.50;14.30;;;7.50;99.90;;;;;;5054431;28;20569;-77
2022/10/01 01:33:52;;;;;;;15.20;14.07;;;7.60;99.90;;;;;;5056028;28;20545;-78
2022/10/01 01:36:25;;;;;;;15.40;14.23;;;7.60;99.90;;;;;;5053770;28;20603;-78
2022/10/01 01:38:57;;;;;;;14.27;13.17;;;7.60;99.90;;;;;;5053393;28;20224;-77
2022/10/01 01:41:27;;;;;;;14.97;13.93;;;7.60;99.90;;;;;;5054835;28;20202;-78
2022/10/01 01:44:01;;;;;;;13.83;12.93;;;7.60;99.90;;;;;;5053548;28;20212;-78
2022/10/01 01:46:33;;;;;;;14.97;13.67;;;7.60;99.90;;;;;;5045579;28;20205;-78
2022/10/01 01:49:02;;;;;;;14.37;13.27;;;7.50;99.90;;;;;;5046001;28;20611;-78
2022/10/01 01:51:34;;;;;;;14.07;13.07;;;7.50;99.90;;;;;;5046641;28;20200;-78
2022/10/01 01:54:01;;;;;;;14.73;13.63;;;7.50;99.90;;;;;;5044917;28;20197;-77
2022/10/01 01:56:28;;;;;;;14.37;13.30;;;7.50;99.90;;;;;;5053025;28;20675;-78
2022/10/01 01:58:58;;;;;;;15.00;13.90;;;7.50;99.90;;;;;;5045303;28;20232;-78
2022/10/01 02:01:37;;;;;;;14.97;13.80;;;7.50;99.90;;;;;;5055074;28;20199;-77
2022/10/01 02:04:07;;;;;;;14.23;13.13;;;7.50;99.90;;;;;;5048868;28;20241;-78
2022/10/01 02:06:46;;;;;;;14.40;13.40;;;7.50;99.90;;;;;;5059570;28;20194;-78
2022/10/01 02:09:21;;;;;;;14.97;13.80;;;7.50;99.90;;;;;;5055907;28;20252;-78
2022/10/01 02:11:57;;;;;;;13.80;12.90;;;7.50;99.90;;;;;;5055589;28;20211;-78
2022/10/01 02:14:35;;;;;;;14.23;13.23;;;7.50;99.90;;;;;;5057951;28;20212;-78
2022/10/01 02:17:12;;;;;;;15.33;13.87;;;7.50;99.90;;;;;;5046147;28;20198;-78
2022/10/01 02:19:45;;;;;;;14.57;13.57;;;7.50;99.90;;;;;;5053614;28;20682;-75
2022/10/01 02:22:17;;;;;;;14.37;13.37;;;7.50;99.90;;;;;;5058160;28;20189;-78
2022/10/01 02:24:48;;;;;;;14.37;13.37;;;7.60;99.90;;;;;;5039172;28;20217;-78
2022/10/01 02:27:20;;;;;;;14.70;13.60;;;7.50;99.90;;;;;;5044731;28;20692;-77
2022/10/01 02:29:50;;;;;;;14.50;13.33;;;7.50;99.90;;;;;;5049464;28;20230;-78
2022/10/01 02:32:19;;;;;;;15.10;13.80;;;7.50;99.90;;;;;;5055630;28;20196;-78
2022/10/01 02:34:49;;;;;;;14.30;13.20;;;7.60;99.90;;;;;;5046249;28;20233;-77
2022/10/01 02:37:21;;;;;;;14.23;13.23;;;7.60;99.90;;;;;;5052169;28;20217;-78
2022/10/01 02:39:50;;;;;;;14.50;13.40;;;7.60;99.90;;;;;;5056664;28;20222;-78
2022/10/01 02:42:20;;;;;;;14.53;13.53;;;7.60;99.90;;;;;;5056339;28;20225;-78
2022/10/01 02:44:50;;;;;;;14.50;13.40;;;7.60;99.90;;;;;;5045746;28;20209;-78
2022/10/01 02:47:21;;;;;;;14.40;13.40;;;7.60;99.90;;;;;;5056226;28;20275;-78
2022/10/01 02:49:48;;;;;;;14.03;13.03;;;7.70;99.90;;;;;;5046001;28;20234;-78
2022/10/01 02:52:25;;;;;;;13.87;12.87;;;7.80;99.90;;;;;;5055218;28;20255;-78
2022/10/01 02:54:57;;;;;;;14.03;13.13;;;7.90;99.90;;;;;;5054918;28;20196;-78
2022/10/01 02:57:25;;;;;;;13.80;12.80;;;8.00;99.90;;;;;;5044969;28;20200;-78
2022/10/01 02:59:56;;;;;;;13.70;12.80;;;8.00;99.90;;;;;;5041360;28;20222;-78
2022/10/01 03:02:25;;;;;;;13.27;12.37;;;8.10;99.90;;;;;;5053177;28;20201;-78
2022/10/01 03:04:52;;;;;;;13.47;12.57;;;8.10;99.90;;;;;;5045363;28;20211;-78
2022/10/01 03:07:19;;;;;;;13.23;12.33;;;8.20;99.90;;;;;;5054881;28;20213;-78
2022/10/01 03:09:46;;;;;;;12.40;11.60;;;8.20;99.90;;;;;;5054320;28;20229;-78
2022/10/01 03:12:13;;;;;;;12.63;11.73;;;8.30;99.90;;;;;;5055025;28;20491;-78
2022/10/01 03:14:40;;;;;;;11.93;11.13;;;8.30;99.90;;;;;;5053828;28;20195;-78
2022/10/01 03:17:08;;;;;;;11.37;10.63;;;8.40;99.90;;;;;;5047874;28;20207;-78
2022/10/01 03:19:35;;;;;;;12.50;11.70;;;8.40;99.90;;;;;;5046570;28;20603;-78
2022/10/01 03:22:02;;;;;;;12.33;11.43;;;8.50;99.90;;;;;;5047260;28;20196;-84
2022/10/01 03:24:29;;;;;;;5.43;5.03;;;8.50;99.90;;;;;;5052897;28;20691;-77
2022/10/01 03:26:56;;;;;;;5.53;5.13;;;8.50;99.90;;;;;;5052434;28;20670;-76
2022/10/01 03:29:23;;;;;;;10.93;10.23;;;8.50;99.90;;;;;;5048094;28;20272;-76
2022/10/01 03:31:50;;;;;;;7.27;6.77;;;8.50;99.90;;;;;;5051806;28;20238;-77
2022/10/01 03:34:19;;;;;;;5.40;5.00;;;8.50;99.90;;;;;;5051630;28;20198;-76
2022/10/01 03:36:47;;;;;;;4.23;3.70;;;8.50;99.90;;;;;;5051635;28;20194;-75
2022/10/01 03:39:14;;;;;;;10.57;9.87;;;8.60;99.90;;;;;;5051757;28;20241;-76
2022/10/01 03:41:41;;;;;;;4.47;4.00;;;8.60;99.90;;;;;;5041619;28;20581;-76
2022/10/01 03:44:08;;;;;;;4.80;4.40;;;8.50;99.90;;;;;;5043322;28;20191;-75
2022/10/01 03:46:35;;;;;;;6.23;5.83;;;8.60;99.90;;;;;;5051466;28;20190;-76
2022/10/01 03:49:02;;;;;;;6.10;5.53;;;8.60;99.90;;;;;;5051450;28;20222;-80
2022/10/01 03:51:31;;;;;;;4.97;4.57;;;8.60;99.90;;;;;;5041965;28;20285;-78
2022/10/01 03:53:58;;;;;;;4.20;3.90;;;8.60;99.90;;;;;;5049493;28;20298;-82
2022/10/01 03:56:25;;;;;;;5.30;4.90;;;8.60;99.90;;;;;;5049664;28;20198;-77
2022/10/01 03:58:53;;;;;;;5.30;4.83;;;8.60;99.90;;;;;;5050804;28;20576;-78
2022/10/01 04:01:20;;;;;;;10.60;9.97;;;8.60;99.90;;;;;;5051197;28;20202;-77
2022/10/01 04:03:48;;;;;;;18.13;17.00;;;8.70;99.90;;;;;;5051488;28;20286;-77
2022/10/01 04:06:14;;;;;;;10.97;10.33;;;8.70;99.90;;;;;;5048790;28;20222;-77
2022/10/01 04:08:43;;;;;;;6.93;6.43;;;8.70;99.90;;;;;;5053010;28;20211;-77
2022/10/01 04:11:09;;;;;;;4.20;3.90;;;8.60;99.90;;;;;;5045646;28;20198;-78
2022/10/01 04:13:37;;;;;;;8.27;7.67;;;8.70;99.90;;;;;;5045988;28;20240;-77
2022/10/01 04:16:05;;;;;;;10.10;9.50;;;8.70;99.90;;;;;;5046139;28;20206;-77
2022/10/01 04:18:33;;;;;;;3.67;3.40;;;8.60;99.90;;;;;;5045797;28;20225;-77
2022/10/01 04:21:00;;;;;;;7.20;6.80;;;8.70;99.90;;;;;;5048263;28;20200;-77
2022/10/01 04:23:27;;;;;;;8.50;7.93;;;8.60;99.90;;;;;;5055168;28;20198;-77
2022/10/01 04:25:58;;;;;;;6.60;6.13;;;8.60;99.90;;;;;;5055246;28;20233;-77
2022/10/01 04:28:25;;;;;;;8.63;8.13;;;8.70;99.90;;;;;;5042172;28;20256;-76
2022/10/01 04:31:23;;;;;;;4.00;3.80;;;8.70;99.90;;;;;;5054915;28;20616;-77
2022/10/01 04:33:40;;;;;;;2.90;2.80;;;8.70;99.90;;;;;;5045564;28;20193;-77
2022/10/01 04:36:07;;;;;;;4.60;4.20;;;8.80;99.90;;;;;;5055352;28;20183;-77
2022/10/01 04:38:34;;;;;;;4.10;3.80;;;8.80;99.90;;;;;;5055062;28;20222;-77
2022/10/01 04:41:02;;;;;;;4.73;4.43;;;8.80;99.90;;;;;;5044738;28;20207;-77
2022/10/01 04:43:29;;;;;;;5.00;4.70;;;8.90;99.90;;;;;;5045533;28;20267;-77
2022/10/01 04:45:56;;;;;;;3.70;3.50;;;8.90;99.90;;;;;;5054820;28;20211;-77
2022/10/01 04:48:23;;;;;;;5.13;4.73;;;8.90;99.90;;;;;;5044965;28;20231;-78
2022/10/01 04:50:50;;;;;;;9.20;8.67;;;8.90;99.90;;;;;;5054903;28;20203;-77
2022/10/01 04:53:17;;;;;;;4.40;4.20;;;9.00;99.90;;;;;;5054781;28;20699;-78
2022/10/01 04:55:45;;;;;;;3.60;3.40;;;9.00;99.90;;;;;;5055075;28;20195;-77
2022/10/01 04:58:13;;;;;;;4.80;4.40;;;9.10;99.90;;;;;;5055739;28;20273;-78
2022/10/01 05:00:40;;;;;;;2.70;2.60;;;9.10;99.90;;;;;;5046333;28;20505;-77
2022/10/01 05:03:07;;;;;;;2.87;2.70;;;9.20;99.90;;;;;;5051343;28;20207;-77
2022/10/01 05:05:34;;;;;;;9.37;8.87;;;9.20;99.90;;;;;;5054435;28;20218;-77
2022/10/01 05:08:01;;;;;;;9.70;9.20;;;9.30;99.90;;;;;;5054093;28;20223;-77
2022/10/01 05:10:28;;;;;;;9.40;8.90;;;9.30;99.90;;;;;;5032916;28;20207;-77
2022/10/01 05:12:56;;;;;;;3.90;3.70;;;9.40;99.90;;;;;;5034460;28;20579;-77
2022/10/01 05:15:25;;;;;;;10.87;10.27;;;9.50;99.90;;;;;;5034192;28;20200;-78
2022/10/01 05:17:51;;;;;;;9.30;8.80;;;9.60;99.90;;;;;;5033604;28;20578;-78
2022/10/01 05:20:20;;;;;;;9.27;8.77;;;9.70;99.90;;;;;;5053342;28;20227;-77
2022/10/01 05:22:48;;;;;;;9.57;9.00;;;9.80;99.90;;;;;;5055446;28;20203;-78
2022/10/01 05:25:16;;;;;;;9.40;8.90;;;9.90;99.90;;;;;;5043880;28;20223;-78
2022/10/01 05:27:43;;;;;;;10.30;9.80;;;10.00;99.90;;;;;;5055800;28;20195;-78
2022/10/01 05:30:12;;;;;;;10.20;9.60;;;10.10;99.90;;;;;;5053082;28;20202;-78
2022/10/01 05:32:40;;;;;;;9.83;9.27;;;10.10;99.90;;;;;;5053823;28;20202;-78
2022/10/01 05:35:08;;;;;;;10.23;9.70;;;10.20;99.90;;;;;;5055011;28;20195;-78
2022/10/01 05:37:35;;;;;;;9.33;8.83;;;10.20;99.90;;;;;;5054779;28;20192;-78
2022/10/01 05:40:02;;;;;;;9.93;9.33;;;10.20;99.90;;;;;;5056406;28;20211;-77
2022/10/01 05:42:29;;;;;;;10.10;9.50;;;10.20;99.90;;;;;;5045167;28;20198;-78
2022/10/01 05:44:56;;;;;;;10.40;9.80;;;10.20;99.90;;;;;;5044232;28;20265;-78
2022/10/01 05:47:23;;;;;;;10.30;9.80;;;10.20;99.90;;;;;;5054845;28;20199;-78
2022/10/01 05:49:51;;;;;;;10.40;9.80;;;10.30;99.90;;;;;;5058054;22;20283;-77
2022/10/01 05:52:18;;;;;;;10.70;10.10;;;10.30;99.90;;;;;;5038652;28;20216;-77
2022/10/01 05:54:45;;;;;;;10.67;10.07;;;10.40;99.90;;;;;;5036117;28;20197;-79
2022/10/01 05:57:12;;;;;;;10.50;9.90;;;10.40;99.90;;;;;;5032036;28;20196;-77
2022/10/01 05:59:39;;;;;;;10.40;9.80;;;10.50;99.90;;;;;;5032291;28;20230;-76
2022/10/01 06:02:05;;;;;;;10.50;9.80;;;10.50;99.90;;;;;;5032152;28;20238;-76
2022/10/01 06:04:32;;;;;;;10.30;9.70;;;10.50;99.90;;;;;;5029607;28;20653;-77
2022/10/01 06:07:00;;;;;;;10.43;9.83;;;10.60;99.90;;;;;;5029746;28;20212;-76
2022/10/01 06:09:27;;;;;;;10.10;9.60;;;10.60;99.90;;;;;;5026620;28;20227;-77
2022/10/01 06:11:54;;;;;;;10.30;9.70;;;10.60;99.90;;;;;;5032498;28;20200;-75
2022/10/01 06:14:22;;;;;;;10.00;9.40;;;10.70;99.90;;;;;;5038049;28;20649;-77
2022/10/01 06:16:52;;;;;;;10.17;9.57;;;10.80;99.90;;;;;;5034088;28;20227;-77
2022/10/01 06:19:19;;;;;;;9.93;9.33;;;10.80;99.90;;;;;;5036706;28;20663;-78
2022/10/01 06:21:46;;;;;;;9.73;9.13;;;10.90;99.90;;;;;;5030487;28;20708;-77
2022/10/01 06:24:14;;;;;;;8.90;8.40;;;10.90;99.90;;;;;;5034580;28;20719;-78
2022/10/01 06:26:42;;;;;;;9.37;8.80;;;10.90;99.90;;;;;;5033795;28;20219;-79
2022/10/01 06:29:10;;;;;;;9.27;8.77;;;11.00;99.90;;;;;;5025575;28;20220;-79
2022/10/01 06:31:37;;;;;;;9.10;8.60;;;11.00;99.90;;;;;;5032545;28;20199;-79
2022/10/01 06:34:04;;;;;;;9.00;8.40;;;11.10;99.90;;;;;;5035557;28;20198;-77
2022/10/01 06:36:31;;;;;;;9.40;8.80;;;11.10;99.90;;;;;;5034383;28;20192;-78
2022/10/01 06:38:58;;;;;;;9.20;8.60;;;11.10;99.90;;;;;;5034648;28;20735;-78
2022/10/01 06:41:26;;;;;;;9.13;8.63;;;11.10;99.90;;;;;;5035885;28;20200;-78
2022/10/01 06:43:53;;;;;;;9.27;8.63;;;11.00;99.90;;;;;;5029673;28;20201;-78
2022/10/01 06:46:20;;;;;;;9.60;9.00;;;11.00;99.90;;;;;;5026792;28;20219;-84
2022/10/01 06:48:46;;;;;;;9.50;9.00;;;11.00;99.90;;;;;;5028995;28;20235;-79
2022/10/01 06:51:13;;;;;;;9.70;9.00;;;10.90;99.90;;;;;;5025278;28;20567;-79
2022/10/01 06:53:40;;;;;;;9.57;9.00;;;10.90;99.90;;;;;;5030193;28;20239;-80
2022/10/01 06:56:08;;;;;;;9.50;8.90;;;10.90;99.90;;;;;;5022196;28;20197;-79
2022/10/01 06:58:36;;;;;;;9.80;9.20;;;10.90;99.90;;;;;;5033509;28;20220;-80
2022/10/01 07:01:03;;;;;;;9.80;9.10;;;10.90;99.90;;;;;;5031741;28;20200;-81
2022/10/01 07:03:30;;;;;;;9.10;8.60;;;10.90;99.90;;;;;;5031953;28;20580;-79
2022/10/01 07:06:02;;;;;;;9.87;9.27;;;10.90;99.90;;;;;;5028677;28;20208;-82
2022/10/01 07:08:29;;;;;;;9.77;9.17;;;10.90;99.90;;;;;;5026319;28;20224;-77
2022/10/01 07:11:01;;;;;;;9.40;8.80;;;10.90;99.90;;;;;;5035775;28;20668;-77
2022/10/01 07:13:28;;;;;;;9.40;8.80;;;10.90;99.90;;;;;;5034086;28;20225;-78
2022/10/01 07:15:56;;;;;;;9.20;8.60;;;11.00;99.90;;;;;;5028118;28;20212;-78
2022/10/01 07:18:23;;;;;;;9.20;8.70;;;11.00;99.90;;;;;;5039342;28;20199;-78
2022/10/01 07:20:50;;;;;;;9.07;8.50;;;11.00;99.90;;;;;;5036831;28;20204;-78
2022/10/01 07:23:17;;;;;;;8.63;8.13;;;11.00;99.90;;;;;;5038839;28;20695;-77
2022/10/01 07:25:44;;;;;;;8.97;8.47;;;11.00;99.90;;;;;;5037699;28;20213;-78
2022/10/01 07:28:16;;;;;;;8.83;8.33;;;11.10;99.90;;;;;;5038796;28;20200;-78
2022/10/01 07:30:46;;;;;;;8.63;8.13;;;11.10;99.90;;;;;;5039975;28;20201;-78
2022/10/01 07:33:17;;;;;;;9.07;8.50;;;11.10;99.90;;;;;;5039508;28;20669;-78
2022/10/01 07:35:46;;;;;;;8.80;8.20;;;11.10;99.90;;;;;;5039950;28;20680;-78
2022/10/01 07:38:13;;;;;;;9.23;8.63;;;11.10;99.90;;;;;;5040158;28;20224;-78
2022/10/01 07:40:40;;;;;;;8.63;8.13;;;11.20;99.90;;;;;;5038184;28;20218;-78
2022/10/01 07:43:08;;;;;;;9.00;8.50;;;11.20;99.90;;;;;;5040542;28;20242;-78
2022/10/01 07:45:35;;;;;;;9.20;8.60;;;11.20;99.90;;;;;;5036908;28;20200;-77
2022/10/01 07:48:04;;;;;;;8.70;8.20;;;11.20;99.90;;;;;;5032787;28;20208;-77
2022/10/01 07:50:33;;;;;;;8.90;8.40;;;11.20;99.90;;;;;;5034526;28;20245;-77
2022/10/01 07:53:00;;;;;;;9.10;8.60;;;11.20;99.90;;;;;;5029470;28;20233;-77
2022/10/01 07:55:29;;;;;;;9.07;8.47;;;11.20;99.90;;;;;;5031197;28;20558;-78
2022/10/01 07:58:00;;;;;;;8.87;8.37;;;11.30;99.90;;;;;;5033134;28;20258;-78
2022/10/01 08:00:28;;;;;;;2.83;2.63;;;11.30;99.90;;;;;;5050765;28;20706;-77
2022/10/01 08:02:56;;;;;;;3.03;2.80;;;11.30;99.90;;;;;;5034338;28;20269;-77
2022/10/01 08:05:25;;;;;;;2.60;2.40;;;11.40;99.90;;;;;;5037864;28;20197;-78
2022/10/01 08:07:53;;;;;;;3.07;2.83;;;11.40;99.90;;;;;;5035401;28;20267;-78
2022/10/01 08:10:22;;;;;;;3.93;3.67;;;11.40;99.90;;;;;;5032612;28;20228;-78
2022/10/01 08:12:48;;;;;;;5.47;5.07;;;11.50;99.90;;;;;;5039410;28;20200;-78
2022/10/01 08:15:17;;;;;;;3.40;3.20;;;11.50;99.90;;;;;;5033074;28;20258;-78
2022/10/01 08:17:45;;;;;;;3.10;2.90;;;11.50;99.90;;;;;;5032189;28;20196;-78
2022/10/01 08:20:14;;;;;;;3.33;3.00;;;11.50;99.90;;;;;;5035616;28;20245;-78
2022/10/01 08:22:41;;;;;;;3.63;3.33;;;11.50;99.90;;;;;;5032793;28;20200;-78
2022/10/01 08:25:10;;;;;;;2.70;2.50;;;11.50;99.90;;;;;;5054700;28;20199;-76
2022/10/01 08:27:37;;;;;;;2.97;2.77;;;11.50;99.90;;;;;;5039749;28;20793;-77
2022/10/01 08:30:05;;;;;;;2.70;2.50;;;11.50;99.90;;;;;;5032557;28;20217;-77
2022/10/01 08:32:32;;;;;;;2.77;2.57;;;11.50;99.90;;;;;;5039012;28;20212;-76
2022/10/01 08:35:00;;;;;;;3.30;3.10;;;11.50;99.90;;;;;;5029241;28;20212;-77
2022/10/01 08:37:27;;;;;;;9.20;8.67;;;11.50;99.90;;;;;;5036523;28;20208;-77
2022/10/01 08:39:55;;;;;;;5.37;4.93;;;11.60;99.90;;;;;;5034871;28;20268;-77
2022/10/01 08:42:38;;;;;;;3.53;3.23;;;11.60;99.90;;;;;;5038422;28;20222;-77
2022/10/01 08:45:11;;;;;;;8.43;7.93;;;11.60;99.90;;;;;;5035444;28;20190;-77
2022/10/01 08:47:41;;;;;;;9.00;8.50;;;11.70;99.90;;;;;;5036508;28;20210;-77
2022/10/01 08:50:16;;;;;;;9.50;8.90;;;11.70;99.90;;;;;;5039423;28;20237;-77
2022/10/01 08:52:51;;;;;;;9.60;9.00;;;11.70;99.90;;;;;;5038865;28;20206;-74
2022/10/01 08:55:22;;;;;;;9.90;9.30;;;11.70;99.90;;;;;;5043781;28;20224;-77
2022/10/01 08:57:54;;;;;;;9.93;9.33;;;11.80;99.90;;;;;;5045267;28;20215;-77
2022/10/01 09:00:21;;;;;;;9.60;9.00;;;11.70;99.90;;;;;;5046271;28;20243;-77
2022/10/01 09:02:49;;;;;;;9.17;8.67;;;11.80;99.90;;;;;;5033203;28;20207;-76
2022/10/01 09:05:23;;;;;;;9.90;9.20;;;11.80;99.90;;;;;;5039641;28;20581;-76
2022/10/01 09:08:01;;;;;;;9.33;8.83;;;11.90;99.90;;;;;;5036779;28;20224;-76
2022/10/01 09:10:45;;;;;;;10.20;9.50;;;11.90;99.90;;;;;;5021149;28;20316;-76
2022/10/01 09:13:45;;;;;;;6.20;5.70;;;12.10;99.90;;;;;;5037779;28;20198;-76
2022/10/01 09:16:17;;;;;;;7.00;6.43;;;12.10;99.90;;;;;;5038039;28;20221;-77
2022/10/01 09:18:55;;;;;;;4.90;4.60;;;12.20;99.90;;;;;;5037870;28;20213;-77
2022/10/01 09:21:28;;;;;;;4.60;4.17;;;12.30;99.90;;;;;;5037301;28;20259;-77
2022/10/01 09:24:03;;;;;;;3.33;3.13;;;12.30;99.90;;;;;;5037332;28;20198;-77
2022/10/01 09:26:30;;;;;;;9.87;9.13;;;12.30;99.90;;;;;;5035827;28;20207;-77
2022/10/01 09:29:01;;;;;;;2.87;2.57;;;12.40;99.90;;;;;;5035518;28;20710;-76
2022/10/01 09:31:33;;;;;;;2.43;2.33;;;12.30;99.90;;;;;;5034863;28;20194;-76
2022/10/01 09:34:04;;;;;;;4.40;2.93;;;12.40;99.90;;;;;;5028599;28;20667;-78
2022/10/01 09:36:37;;;;;;;9.10;8.60;;;12.40;99.90;;;;;;5025981;28;20553;-76
2022/10/01 09:39:14;;;;;;;8.40;7.90;;;12.40;99.90;;;;;;5035457;28;20215;-76
2022/10/01 09:41:44;;;;;;;8.67;8.17;;;12.30;99.90;;;;;;5035596;28;20194;-76
2022/10/01 09:44:17;;;;;;;8.47;7.50;;;12.30;99.90;;;;;;5037530;28;20256;-76
2022/10/01 09:46:45;;;;;;;8.40;7.90;;;12.30;99.90;;;;;;5035033;28;20277;-76
2022/10/01 09:49:22;;;;;;;8.23;7.83;;;12.30;99.90;;;;;;5035262;28;20225;-76
2022/10/01 09:51:54;;;;;;;8.50;8.00;;;12.30;99.90;;;;;;5035100;28;20448;-77
2022/10/01 09:54:31;;;;;;;8.60;8.10;;;12.30;99.90;;;;;;5035474;28;20200;-76
2022/10/01 09:57:05;;;;;;;8.00;7.50;;;12.30;99.90;;;;;;5034229;28;20260;-76
2022/10/01 09:59:36;;;;;;;7.87;7.47;;;12.30;99.90;;;;;;5019916;28;20221;-76
2022/10/01 10:02:07;;;;;;;7.37;6.97;;;12.30;99.90;;;;;;5031325;28;20199;-77
2022/10/01 10:04:34;;;;;;;7.33;6.87;;;12.30;99.90;;;;;;5030755;28;20208;-77
2022/10/01 10:07:04;;;;;;;7.50;7.10;;;12.40;99.90;;;;;;5033579;28;20226;-76
2022/10/01 10:09:33;;;;;;;7.53;7.03;;;12.40;99.90;;;;;;5034274;28;20244;-77
2022/10/01 10:12:01;;;;;;;8.20;7.40;;;12.30;99.90;;;;;;5031661;28;20207;-78
2022/10/01 10:14:32;;;;;;;7.30;6.77;;;12.30;99.90;;;;;;5026363;28;20200;-78
2022/10/01 10:17:11;;;;;;;7.90;7.40;;;12.30;99.90;;;;;;5036425;28;20202;-78
2022/10/01 10:19:38;;;;;;;7.63;7.23;;;12.30;99.90;;;;;;5035065;28;20213;-79
2022/10/01 10:22:13;;;;;;;7.70;7.30;;;12.20;99.90;;;;;;5035692;28;20286;-77
2022/10/01 10:24:40;;;;;;;7.80;7.40;;;12.10;99.90;;;;;;5030758;28;20213;-78
2022/10/01 10:27:23;;;;;;;7.80;7.30;;;12.10;99.90;;;;;;5022458;28;20270;-77
2022/10/01 10:30:01;;;;;;;8.50;8.00;;;12.10;99.90;;;;;;5028859;28;20234;-78
2022/10/01 10:32:29;;;;;;;8.23;7.73;;;12.10;99.90;;;;;;5026936;28;20206;-81
2022/10/01 10:35:02;;;;;;;8.30;7.80;;;12.00;99.90;;;;;;5037256;28;20206;-77
2022/10/01 10:37:32;;;;;;;8.37;7.87;;;12.00;99.90;;;;;;5029076;28;20273;-78
2022/10/01 10:39:59;;;;;;;8.03;7.63;;;12.00;99.90;;;;;;5036556;28;20234;-76
2022/10/01 10:42:26;;;;;;;8.83;8.27;;;11.90;99.90;;;;;;5039676;28;20217;-77
2022/10/01 10:44:56;;;;;;;8.80;8.30;;;11.90;99.90;;;;;;5054658;28;20234;-77
2022/10/01 10:47:27;;;;;;;8.70;8.20;;;11.80;99.90;;;;;;5037540;28;20205;-79
2022/10/01 10:49:58;;;;;;;8.80;8.30;;;11.80;99.90;;;;;;5031918;28;20605;-80
2022/10/01 10:52:28;;;;;;;8.60;8.10;;;11.80;99.90;;;;;;5034857;28;20580;-78
2022/10/01 10:54:57;;;;;;;9.20;8.70;;;11.80;99.90;;;;;;5026971;28;20230;-80
2022/10/01 10:57:26;;;;;;;8.60;8.10;;;11.90;99.90;;;;;;5056164;28;20192;-77
2022/10/01 10:59:59;;;;;;;8.53;8.03;;;11.90;99.90;;;;;;5036695;28;20221;-77
2022/10/01 11:02:28;;;;;;;8.70;8.20;;;12.00;99.90;;;;;;5034481;28;20221;-78
2022/10/01 11:04:58;;;;;;;8.60;8.10;;;12.00;99.90;;;;;;5037344;28;20204;-78
2022/10/01 11:07:27;;;;;;;8.77;8.27;;;12.10;99.90;;;;;;5037291;28;20225;-77
2022/10/01 11:10:10;;;;;;;8.70;8.20;;;12.10;99.90;;;;;;5036647;28;20227;-79
2022/10/01 11:13:00;;;;;;;9.10;8.40;;;12.20;99.90;;;;;;5035575;28;20199;-78
2022/10/01 11:15:42;;;;;;;8.67;8.17;;;12.30;99.90;;;;;;5037188;28;20672;-76
2022/10/01 11:18:32;;;;;;;9.10;8.50;;;12.40;99.90;;;;;;5034680;28;20676;-76
2022/10/01 11:21:12;;;;;;;9.10;8.60;;;12.50;99.90;;;;;;5030047;28;20207;-76
2022/10/01 11:23:57;;;;;;;9.30;8.70;;;12.60;99.90;;;;;;5027255;28;20202;-76
2022/10/01 11:26:28;;;;;;;9.73;9.03;;;12.70;99.90;;;;;;5028090;28;20615;-76
2022/10/01 11:29:12;;;;;;;9.33;8.73;;;12.80;99.90;;;;;;5029965;28;20223;-76
2022/10/01 11:31:49;;;;;;;8.57;8.07;;;12.90;99.90;;;;;;5033220;28;20214;-76
2022/10/01 11:34:41;;;;;;;9.27;8.77;;;13.00;99.90;;;;;;5035002;28;20242;-80
2022/10/01 11:37:27;;;;;;;8.80;8.20;;;13.00;99.90;;;;;;5028246;28;20193;-76
2022/10/01 11:39:58;;;;;;;7.80;7.40;;;12.90;99.90;;;;;;5034316;28;20322;-76
2022/10/01 11:42:33;;;;;;;8.57;7.90;;;12.90;99.90;;;;;;5035327;28;20250;-76
2022/10/01 11:45:05;;;;;;;8.80;8.30;;;12.80;99.90;;;;;;5028407;28;20205;-76
2022/10/01 11:47:38;;;;;;;9.03;8.43;;;12.90;99.90;;;;;;5024874;28;20784;-77
2022/10/01 11:50:07;;;;;;;8.70;8.20;;;12.90;99.90;;;;;;5060890;22;20715;-79
2022/10/01 11:52:41;;;;;;;5.47;5.17;;;13.00;99.90;;;;;;5035338;28;20667;-85
2022/10/01 12:01:15;;;;;;;8.70;8.20;;;13.10;99.90;;;;;;5031323;28;20672;-80
2022/10/01 12:03:56;;;;;;;8.67;8.17;;;13.10;99.90;;;;;;5010859;28;20702;-79
2022/10/01 12:06:28;;;;;;;8.77;8.27;;;13.20;99.90;;;;;;5012399;28;20203;-80
2022/10/01 12:09:00;;;;;;;8.27;7.77;;;13.20;99.90;;;;;;5008384;28;20224;-79
2022/10/01 12:11:35;;;;;;;6.10;5.70;;;13.20;99.90;;;;;;5019425;28;20208;-79
2022/10/01 12:14:09;;;;;;;5.53;5.13;;;13.20;99.90;;;;;;5039040;28;20199;-79
2022/10/01 12:16:43;;;;;;;5.13;4.77;;;13.20;99.90;;;;;;5012990;28;20254;-79
2022/10/01 12:19:17;;;;;;;6.27;5.87;;;13.20;99.90;;;;;;5021451;28;20227;-79
2022/10/01 12:21:47;;;;;;;2.50;2.30;;;13.20;99.90;;;;;;5018680;28;20260;-79
2022/10/01 12:24:19;;;;;;;2.17;2.07;;;13.30;99.90;;;;;;5020333;28;20266;-80
2022/10/01 12:26:56;;;;;;;2.57;2.30;;;13.40;99.90;;;;;;5021167;28;20569;-79
2022/10/01 12:29:34;;;;;;;6.90;6.40;;;13.40;99.90;;;;;;5012296;28;20226;-79
2022/10/01 12:32:12;;;;;;;7.73;7.33;;;13.30;99.90;;;;;;5032644;28;20200;-79
2022/10/01 12:34:51;;;;;;;7.77;7.27;;;13.40;99.90;;;;;;5017439;28;20196;-79
2022/10/01 12:37:28;;;;;;;8.80;8.30;;;13.40;99.90;;;;;;5021229;28;20211;-79
2022/10/01 12:40:09;;;;;;;8.40;7.90;;;13.40;99.90;;;;;;5020957;28;20279;-79
2022/10/01 12:42:50;;;;;;;9.00;8.40;;;13.40;99.90;;;;;;5027119;28;20198;-79
2022/10/01 12:45:25;;;;;;;6.10;5.70;;;13.40;99.90;;;;;;5023765;28;20212;-79
2022/10/01 12:47:57;;;;;;;8.97;8.47;;;13.50;99.90;;;;;;5026783;28;20223;-79
2022/10/01 12:50:34;;;;;;;8.67;8.17;;;13.70;99.90;;;;;;5022938;28;20228;-79
2022/10/01 12:53:13;;;;;;;8.77;8.27;;;13.80;99.90;;;;;;5020414;28;20208;-79
2022/10/01 12:55:57;;;;;;;7.73;7.33;;;13.90;99.90;;;;;;5050767;28;20266;-79
2022/10/01 12:58:43;;;;;;;9.17;8.67;;;14.00;99.90;;;;;;5027656;28;20188;-79
2022/10/01 13:01:15;;;;;;;2.97;2.77;;;14.20;99.90;;;;;;5019064;28;20240;-79
2022/10/01 13:03:58;;;;;;;8.27;7.87;;;14.30;99.90;;;;;;5024449;28;20200;-79
2022/10/01 13:06:35;;;;;;;5.00;4.80;;;14.40;99.90;;;;;;5023831;28;20200;-81
2022/10/01 13:09:12;;;;;;;6.10;5.67;;;14.50;99.90;;;;;;5024627;28;20511;-79